NOZ173 ENZV-ENBR
Flight info
| Callsign | NOZ173 |
|---|---|
| Flight time | 0h 21m |
| Altitude | 16000 |
| Route | ALUVA |
| Aircraft | B38M/M-SDE1FGHILORVWXY/HB1 |
Departure
| Time | 2026-04-30 06:53 |
|---|---|
| Airport | Stavanger Airport, Sola (ENZV) |
Arrival
| Time | 2026-04-30 07:15 |
|---|---|
| Airport | Bergen Airport, Flesland (ENBR) |
| Time | Latitude | Longitude | Altitude | Speed | Heading |
|---|---|---|---|---|---|
| 2026-04-30 06:40 | 58.88126 | 5.63027 | 28 ft | 0 kts | 315° |
| 2026-04-30 06:47 | 58.88117 | 5.63045 | 27 ft | 3 kts | 315° |
| 2026-04-30 06:47 | 58.88105 | 5.63069 | 27 ft | 2 kts | 315° |
| 2026-04-30 06:47 | 58.88093 | 5.63091 | 28 ft | 2 kts | 315° |
| 2026-04-30 06:48 | 58.88092 | 5.63092 | 28 ft | 0 kts | 315° |
| 2026-04-30 06:49 | 58.88094 | 5.63086 | 28 ft | 3 kts | 301° |
| 2026-04-30 06:49 | 58.88066 | 5.63046 | 28 ft | 8 kts | 162° |
| 2026-04-30 06:49 | 58.87998 | 5.63121 | 31 ft | 15 kts | 150° |
| 2026-04-30 06:50 | 58.87946 | 5.63292 | 32 ft | 14 kts | 117° |
| 2026-04-30 06:50 | 58.87858 | 5.63307 | 34 ft | 17 kts | 199° |
| 2026-04-30 06:50 | 58.87716 | 5.63294 | 34 ft | 24 kts | 179° |
| 2026-04-30 06:50 | 58.87529 | 5.63299 | 33 ft | 30 kts | 179° |
| 2026-04-30 06:51 | 58.87305 | 5.63301 | 33 ft | 35 kts | 179° |
| 2026-04-30 06:51 | 58.87107 | 5.63308 | 35 ft | 16 kts | 178° |
| 2026-04-30 06:51 | 58.87008 | 5.63401 | 34 ft | 18 kts | 118° |
| 2026-04-30 06:51 | 58.87028 | 5.63620 | 35 ft | 17 kts | 61° |
| 2026-04-30 06:52 | 58.87087 | 5.63789 | 37 ft | 13 kts | 29° |
| 2026-04-30 06:52 | 58.87123 | 5.63800 | 37 ft | 0 kts | 356° |
| 2026-04-30 06:52 | 58.87124 | 5.63800 | 37 ft | 3 kts | 356° |
| 2026-04-30 06:52 | 58.87450 | 5.63787 | 36 ft | 90 kts | 358° |
| 2026-04-30 06:53 | 58.88332 | 5.63757 | 35 ft | 161 kts | 358° |
| 2026-04-30 06:53 | 58.89538 | 5.63693 | 625 ft | 182 kts | 358° |
| 2026-04-30 06:53 | 58.90834 | 5.63612 | 1580 ft | 188 kts | 357° |
| 2026-04-30 06:53 | 58.92177 | 5.63501 | 2406 ft | 204 kts | 358° |
| 2026-04-30 06:54 | 58.93705 | 5.63375 | 2844 ft | 239 kts | 358° |
| 2026-04-30 06:54 | 58.95357 | 5.63242 | 4137 ft | 229 kts | 358° |
| 2026-04-30 06:54 | 58.96972 | 5.63214 | 5142 ft | 240 kts | 359° |
| 2026-04-30 06:54 | 58.98711 | 5.63248 | 5827 ft | 259 kts | 357° |
| 2026-04-30 06:55 | 59.00526 | 5.62982 | 6627 ft | 271 kts | 349° |
| 2026-04-30 06:55 | 59.02404 | 5.62271 | 7474 ft | 280 kts | 345° |
| 2026-04-30 06:55 | 59.04328 | 5.61379 | 8339 ft | 286 kts | 344° |
| 2026-04-30 06:55 | 59.06296 | 5.60483 | 9427 ft | 288 kts | 346° |
| 2026-04-30 06:56 | 59.08235 | 5.59654 | 10417 ft | 290 kts | 346° |
| 2026-04-30 06:56 | 59.10242 | 5.58819 | 11127 ft | 303 kts | 347° |
| 2026-04-30 06:56 | 59.12376 | 5.57956 | 11563 ft | 323 kts | 347° |
| 2026-04-30 06:56 | 59.14649 | 5.57049 | 11951 ft | 344 kts | 347° |
| 2026-04-30 06:57 | 59.17061 | 5.56091 | 12291 ft | 364 kts | 348° |
| 2026-04-30 06:57 | 59.19606 | 5.55083 | 12616 ft | 382 kts | 348° |
| 2026-04-30 06:57 | 59.22252 | 5.54032 | 13070 ft | 393 kts | 347° |
| 2026-04-30 06:57 | 59.24937 | 5.52965 | 13854 ft | 395 kts | 347° |
| 2026-04-30 06:58 | 59.27648 | 5.51885 | 14500 ft | 400 kts | 347° |
| 2026-04-30 06:58 | 59.30389 | 5.50792 | 15136 ft | 404 kts | 347° |
| 2026-04-30 06:58 | 59.33152 | 5.49687 | 15783 ft | 407 kts | 347° |
| 2026-04-30 06:58 | 59.35946 | 5.48569 | 16296 ft | 413 kts | 347° |
| 2026-04-30 06:59 | 59.38766 | 5.47437 | 16451 ft | 416 kts | 347° |
| 2026-04-30 06:59 | 59.41619 | 5.46291 | 16486 ft | 420 kts | 347° |
| 2026-04-30 06:59 | 59.44487 | 5.45137 | 16477 ft | 421 kts | 347° |
| 2026-04-30 06:59 | 59.47354 | 5.43981 | 16480 ft | 421 kts | 347° |
| 2026-04-30 07:00 | 59.50224 | 5.42821 | 16479 ft | 421 kts | 347° |
| 2026-04-30 07:00 | 59.53092 | 5.41661 | 16478 ft | 421 kts | 347° |
| 2026-04-30 07:00 | 59.55957 | 5.40500 | 16480 ft | 420 kts | 347° |
| 2026-04-30 07:00 | 59.58822 | 5.39336 | 16478 ft | 421 kts | 347° |
| 2026-04-30 07:01 | 59.61689 | 5.38171 | 16479 ft | 421 kts | 347° |
| 2026-04-30 07:01 | 59.64555 | 5.37003 | 16470 ft | 420 kts | 347° |
| 2026-04-30 07:01 | 59.67420 | 5.35833 | 16470 ft | 420 kts | 347° |
| 2026-04-30 07:01 | 59.70284 | 5.34662 | 16471 ft | 420 kts | 347° |
| 2026-04-30 07:02 | 59.73148 | 5.33489 | 16470 ft | 420 kts | 347° |
| 2026-04-30 07:02 | 59.76012 | 5.32315 | 16469 ft | 420 kts | 347° |
| 2026-04-30 07:02 | 59.78872 | 5.31138 | 16489 ft | 420 kts | 347° |
| 2026-04-30 07:02 | 59.81737 | 5.29959 | 16485 ft | 420 kts | 347° |
| 2026-04-30 07:03 | 59.84600 | 5.28778 | 16485 ft | 420 kts | 347° |
| 2026-04-30 07:03 | 59.87433 | 5.27607 | 16445 ft | 409 kts | 347° |
| 2026-04-30 07:03 | 59.90207 | 5.26457 | 15939 ft | 405 kts | 346° |
| 2026-04-30 07:03 | 59.92951 | 5.25320 | 15437 ft | 401 kts | 346° |
| 2026-04-30 07:04 | 59.95674 | 5.24190 | 14945 ft | 397 kts | 346° |
| 2026-04-30 07:04 | 59.98368 | 5.23069 | 14474 ft | 394 kts | 346° |
| 2026-04-30 07:04 | 60.00141 | 5.22330 | 14143 ft | 392 kts | 346° |
| 2026-04-30 07:04 | 60.02804 | 5.21219 | 13618 ft | 389 kts | 346° |
| 2026-04-30 07:05 | 60.08924 | 5.18659 | 12435 ft | 384 kts | 346° |
| 2026-04-30 07:05 | 60.11527 | 5.17567 | 11935 ft | 381 kts | 345° |
| 2026-04-30 07:05 | 60.14113 | 5.16481 | 11443 ft | 379 kts | 345° |
| 2026-04-30 07:06 | 60.16684 | 5.15399 | 10961 ft | 376 kts | 345° |
| 2026-04-30 07:06 | 60.18410 | 5.14671 | 10639 ft | 375 kts | 345° |
| 2026-04-30 07:06 | 60.20957 | 5.13597 | 10139 ft | 372 kts | 345° |
| 2026-04-30 07:06 | 60.23484 | 5.12530 | 9619 ft | 370 kts | 345° |
| 2026-04-30 07:07 | 60.25972 | 5.11479 | 9055 ft | 359 kts | 345° |
| 2026-04-30 07:07 | 60.28376 | 5.10459 | 8505 ft | 347 kts | 345° |
| 2026-04-30 07:07 | 60.30674 | 5.09484 | 7970 ft | 338 kts | 345° |
| 2026-04-30 07:07 | 60.32943 | 5.08520 | 7426 ft | 330 kts | 345° |
| 2026-04-30 07:08 | 60.35161 | 5.07579 | 6889 ft | 322 kts | 346° |
| 2026-04-30 07:08 | 60.37342 | 5.06752 | 6330 ft | 316 kts | 346° |
| 2026-04-30 07:08 | 60.39475 | 5.05922 | 5768 ft | 309 kts | 346° |
| 2026-04-30 07:08 | 60.41563 | 5.05073 | 5210 ft | 303 kts | 346° |
| 2026-04-30 07:09 | 60.43612 | 5.04202 | 4642 ft | 298 kts | 346° |
| 2026-04-30 07:09 | 60.45624 | 5.03321 | 4104 ft | 293 kts | 348° |
| 2026-04-30 07:09 | 60.47621 | 5.03400 | 3559 ft | 288 kts | 18° |
| 2026-04-30 07:09 | 60.49228 | 5.05572 | 3278 ft | 272 kts | 53° |
| 2026-04-30 07:10 | 60.49894 | 5.08931 | 3166 ft | 249 kts | 89° |
| 2026-04-30 07:10 | 60.49533 | 5.12190 | 3096 ft | 232 kts | 120° |
| 2026-04-30 07:10 | 60.48548 | 5.14624 | 3031 ft | 217 kts | 142° |
| 2026-04-30 07:10 | 60.47242 | 5.15842 | 2986 ft | 201 kts | 171° |
| 2026-04-30 07:11 | 60.45888 | 5.16239 | 3093 ft | 193 kts | 172° |
| 2026-04-30 07:11 | 60.44583 | 5.16665 | 3000 ft | 190 kts | 171° |
| 2026-04-30 07:11 | 60.43284 | 5.17107 | 2774 ft | 188 kts | 171° |
| 2026-04-30 07:11 | 60.42004 | 5.17541 | 2552 ft | 185 kts | 171° |
| 2026-04-30 07:12 | 60.40756 | 5.17963 | 2309 ft | 180 kts | 171° |
| 2026-04-30 07:12 | 60.39537 | 5.18376 | 2072 ft | 176 kts | 171° |
| 2026-04-30 07:12 | 60.38352 | 5.18777 | 1835 ft | 167 kts | 171° |
| 2026-04-30 07:12 | 60.37248 | 5.19150 | 1638 ft | 158 kts | 171° |
| 2026-04-30 07:13 | 60.36196 | 5.19505 | 1426 ft | 151 kts | 171° |
| 2026-04-30 07:13 | 60.35169 | 5.19851 | 1211 ft | 149 kts | 171° |
| 2026-04-30 07:13 | 60.34154 | 5.20192 | 992 ft | 146 kts | 171° |
| 2026-04-30 07:13 | 60.33172 | 5.20525 | 788 ft | 144 kts | 170° |
| 2026-04-30 07:14 | 60.32171 | 5.20862 | 589 ft | 145 kts | 171° |
| 2026-04-30 07:14 | 60.31170 | 5.21199 | 381 ft | 146 kts | 171° |
| 2026-04-30 07:14 | 60.30197 | 5.21527 | 206 ft | 138 kts | 170° |
| 2026-04-30 07:14 | 60.29365 | 5.21805 | 177 ft | 96 kts | 171° |
| 2026-04-30 07:15 | 60.28997 | 5.21932 | 177 ft | 25 kts | 167° |
| 2026-04-30 07:15 | 60.28911 | 5.22047 | 175 ft | 13 kts | 97° |
| 2026-04-30 07:15 | 60.28926 | 5.22271 | 176 ft | 17 kts | 82° |
| 2026-04-30 07:15 | 60.28835 | 5.22430 | 176 ft | 22 kts | 169° |
| 2026-04-30 07:16 | 60.28710 | 5.22552 | 176 ft | 17 kts | 98° |
| 2026-04-30 07:16 | 60.28729 | 5.22795 | 176 ft | 14 kts | 82° |
| 2026-04-30 07:16 | 60.28735 | 5.22887 | 176 ft | 3 kts | 81° |
| 2026-04-30 07:16 | 60.28736 | 5.22894 | 176 ft | 0 kts | 81° |